Earlington, PA (18918)

6:37 PM EDT on May 27, 2015 (GMT -0400)
Franconia | | Change Station
CLOSE
Current Station
Personal Weather Station
Location: Telford, PA
Elevation: 325 ft
Nearby Weather Stations

Elev 325 ft 40.31 °N, 75.37 °W | Updated 48 seconds ago

Rain
Rain
71.4 °F
Feels Like 77 °F
N
0.0
Wind Variable Wind from SW
Gusts 2.0 mph

Today
High -- | Low -- °F
--% Chance of Precip.
Yesterday
High -- | Low -- °F
Precip. -- in
5:36 AM 8:21 PM
Waxing Gibbous, 70% visible
Pressure 30.13 in
Visibility 6.0 miles
Clouds Few 800 ft
Scattered Clouds 3300 ft
Mostly Cloudy 4600 ft
Heat Index 77 °F
Dew Point 48 °F
Humidity 43%
Rainfall 0.12 in
Snow Depth Not available.
UV 1 out of 12
Pollen 4.90 out of 12
Air Quality Not available.
Flu Activity Sporadic
METAR KUKT 272210Z AUTO 22004KT 6SM FEW008 SCT033 BKN046 22/20 A3013 RMK AO1

More Conditions Fewer Conditions

Pressure 30.13 in
Visibility 6.0 miles
Clouds Few 800 ft
Scattered Clouds 3300 ft
Mostly Cloudy 4600 ft
Heat Index 77 °F
Dew Point 48 °F
Humidity 43%
Rainfall 0.12 in
Snow Depth Not available.
UV 1 out of 12
Pollen 4.90 out of 12
Air Quality Not available.
Flu Activity Sporadic
METAR KUKT 272210Z AUTO 22004KT 6SM FEW008 SCT033 BKN046 22/20 A3013 RMK AO1

More Conditions Fewer Conditions

Nowcast | as of 6:25 PM EDT on May 27, 2015

Between now and 800 PM, scattered showers will continue to move to the northeast and out of eastern Pennsylvania.

×

10-Day Weather Forecast

Almanac

Astronomy

May. 27, 2015 Rise Set
Actual Time
Civil Twilight
Nautical Twilight
Astronomical Twilight
Moon
Length of Visible Light
Length of Day
Tomorrow will be .
, % of the Moon is Illuminated

Today's Extremes

State Highs State Lows

Community

WunderPhotos

Upload Photos

1,824,813 photos uploaded!

WunderBlogs® & News

Nearby

Air Quality

  Air Quality AQ Index Pollutant
Not available.

Snow Depth

Station Depth Elevation

Earthquake Activity

City Distance Mag. Time & Date
Minimum magnitude displayed is 2.5.

Coastal Water Temperatures

Place Temperature

Stations

Nearby Weather Stations

Station Location Temp. Windchill Dew Point Humidity Wind Precip. Elev Updated Type
                   
Severe Thunderstorm Watch
Statement as of 5:03 PM EDT on May 27, 2015

Severe Thunderstorm Watch 227 remains in effect until 700 PM EDT

PA
. Pennsylvania counties included are

Berks Bucks Carbon
Chester Delaware Lehigh
Monroe Montgomery Northampton
Philadelphia Pike